Saint Petersburg Beach, Florida
Current Conditions -  °F | °C
As of 4:53 PM on Friday 19 Dec 2014 (Local Time) from KSPG Reporting Station
Clear Clear  
Wind Chill: 70°   Ceiling: Unl
Heat Index: 70°   Visibility: 10mi
Dew Point: 52°   Wind: 7mph
Humidity: 53%   Direction: 40°NE
Pressure: 30.03"   Gusts: NA
Location:  27.7254°N, 82.7422°W
Report Text: KSPG 192153Z 04006KT 10SM CLR 21/11 A3003 RMK AO2 SLP169 T02110111
Loading
Personal Weather Stations






























Interactive Weather Map New forecast layout! Learn more

10-Day Weather Forecast

Advertisements
Track Severe Weather on mobile